Viewmont, North Carolina
Current Conditions -  °F | °C
As of 1:53 PM on Thursday 23 Oct 2014 (Local Time) from KHKY Reporting Station
Clear Clear  
Wind Chill: 66°   Ceiling: Unl
Heat Index: 66°   Visibility: 10mi
Dew Point: 37°   Wind: 6mph
Humidity: 34%   Direction: NA
Pressure: 30.03"   Gusts: NA
Location:  35.7628°N, 81.3219°W
Report Text: KHKY 231753Z VRB05KT 10SM CLR 19/03 A3003 RMK AO2 SLP156 T01890028 10194 20056 58019
Loading
Personal Weather Stations






























Interactive Weather Map
Tropical Storm Tracking
New forecast layout! Learn more

10-Day Weather Forecast

Advertisements
Track Severe Weather on mobile